sensor_id;sensor_type;location;lat;lon;timestamp;temperature;humidity
1447;DHT22;717;51.522;7.266;2022-12-18T00:00:14;4.00;90.10
1447;DHT22;717;51.522;7.266;2022-12-18T00:02:42;4.00;90.10
1447;DHT22;717;51.522;7.266;2022-12-18T00:05:11;3.90;90.00
1447;DHT22;717;51.522;7.266;2022-12-18T00:07:40;4.00;90.10
1447;DHT22;717;51.522;7.266;2022-12-18T00:10:09;3.90;90.00
1447;DHT22;717;51.522;7.266;2022-12-18T00:12:37;4.00;90.10
1447;DHT22;717;51.522;7.266;2022-12-18T00:15:07;4.00;90.10
1447;DHT22;717;51.522;7.266;2022-12-18T00:17:38;4.00;90.10
1447;DHT22;717;51.522;7.266;2022-12-18T00:20:08;4.00;90.00
1447;DHT22;717;51.522;7.266;2022-12-18T00:22:37;4.00;90.10
1447;DHT22;717;51.522;7.266;2022-12-18T00:25:06;4.00;90.00
1447;DHT22;717;51.522;7.266;2022-12-18T00:27:35;4.00;90.00
1447;DHT22;717;51.522;7.266;2022-12-18T00:30:05;4.00;90.00
1447;DHT22;717;51.522;7.266;2022-12-18T00:32:33;4.00;90.00
1447;DHT22;717;51.522;7.266;2022-12-18T00:35:06;4.00;90.00
1447;DHT22;717;51.522;7.266;2022-12-18T00:37:35;4.00;90.00
1447;DHT22;717;51.522;7.266;2022-12-18T00:40:04;3.90;90.20
1447;DHT22;717;51.522;7.266;2022-12-18T00:42:33;4.00;90.00
1447;DHT22;717;51.522;7.266;2022-12-18T00:45:14;4.00;90.00
1447;DHT22;717;51.522;7.266;2022-12-18T00:47:43;4.00;90.00
1447;DHT22;717;51.522;7.266;2022-12-18T00:50:15;4.00;90.00
1447;DHT22;717;51.522;7.266;2022-12-18T00:52:43;4.00;90.10
1447;DHT22;717;51.522;7.266;2022-12-18T00:55:12;4.00;90.10
1447;DHT22;717;51.522;7.266;2022-12-18T00:57:41;4.00;90.10
1447;DHT22;717;51.522;7.266;2022-12-18T01:00:13;4.00;90.10
1447;DHT22;717;51.522;7.266;2022-12-18T01:02:42;4.00;90.10
1447;DHT22;717;51.522;7.266;2022-12-18T01:05:15;4.00;90.10
1447;DHT22;717;51.522;7.266;2022-12-18T01:07:43;4.00;90.10
1447;DHT22;717;51.522;7.266;2022-12-18T01:10:13;4.00;90.20
1447;DHT22;717;51.522;7.266;2022-12-18T01:12:42;4.00;90.20
1447;DHT22;717;51.522;7.266;2022-12-18T01:15:12;4.00;90.20
1447;DHT22;717;51.522;7.266;2022-12-18T01:17:42;4.00;90.20
1447;DHT22;717;51.522;7.266;2022-12-18T01:20:15;4.00;90.20
1447;DHT22;717;51.522;7.266;2022-12-18T01:22:43;4.00;90.20
1447;DHT22;717;51.522;7.266;2022-12-18T01:25:12;4.00;90.20
1447;DHT22;717;51.522;7.266;2022-12-18T01:27:41;4.00;90.10
1447;DHT22;717;51.522;7.266;2022-12-18T01:30:10;4.00;90.10
1447;DHT22;717;51.522;7.266;2022-12-18T01:32:39;4.00;89.50
1447;DHT22;717;51.522;7.266;2022-12-18T01:35:08;3.90;90.00
1447;DHT22;717;51.522;7.266;2022-12-18T01:37:39;3.90;90.00
1447;DHT22;717;51.522;7.266;2022-12-18T01:40:09;3.80;89.90
1447;DHT22;717;51.522;7.266;2022-12-18T01:42:37;3.80;89.80
1447;DHT22;717;51.522;7.266;2022-12-18T01:45:22;3.90;90.30
1447;DHT22;717;51.522;7.266;2022-12-18T01:47:53;3.80;90.10
1447;DHT22;717;51.522;7.266;2022-12-18T01:50:25;3.90;89.90
1447;DHT22;717;51.522;7.266;2022-12-18T01:53:01;3.90;90.00
1447;DHT22;717;51.522;7.266;2022-12-18T01:55:35;3.90;89.90
1447;DHT22;717;51.522;7.266;2022-12-18T01:58:05;3.80;89.60
1447;DHT22;717;51.522;7.266;2022-12-18T02:00:34;3.90;89.50
1447;DHT22;717;51.522;7.266;2022-12-18T02:03:03;3.90;89.50
1447;DHT22;717;51.522;7.266;2022-12-18T02:05:44;3.90;89.80
1447;DHT22;717;51.522;7.266;2022-12-18T02:08:20;3.90;90.10
1447;DHT22;717;51.522;7.266;2022-12-18T02:10:57;3.90;90.00
1447;DHT22;717;51.522;7.266;2022-12-18T02:13:38;3.90;90.00
1447;DHT22;717;51.522;7.266;2022-12-18T02:16:15;3.90;90.00
1447;DHT22;717;51.522;7.266;2022-12-18T02:18:50;3.90;90.00
1447;DHT22;717;51.522;7.266;2022-12-18T02:21:27;3.90;90.00
1447;DHT22;717;51.522;7.266;2022-12-18T02:24:15;3.90;90.10
1447;DHT22;717;51.522;7.266;2022-12-18T02:26:49;4.00;90.20
1447;DHT22;717;51.522;7.266;2022-12-18T02:29:23;4.00;90.10
1447;DHT22;717;51.522;7.266;2022-12-18T02:31:56;4.00;90.00
1447;DHT22;717;51.522;7.266;2022-12-18T02:34:27;4.00;89.30
1447;DHT22;717;51.522;7.266;2022-12-18T02:36:59;3.90;89.50
1447;DHT22;717;51.522;7.266;2022-12-18T02:39:29;3.90;89.80
1447;DHT22;717;51.522;7.266;2022-12-18T02:42:02;3.90;89.70
1447;DHT22;717;51.522;7.266;2022-12-18T02:44:33;3.90;89.80
1447;DHT22;717;51.522;7.266;2022-12-18T02:47:02;3.90;89.80
1447;DHT22;717;51.522;7.266;2022-12-18T02:49:36;3.90;89.90
1447;DHT22;717;51.522;7.266;2022-12-18T02:52:16;3.90;90.00
1447;DHT22;717;51.522;7.266;2022-12-18T02:54:57;3.90;90.10
1447;DHT22;717;51.522;7.266;2022-12-18T02:57:34;3.90;90.10
1447;DHT22;717;51.522;7.266;2022-12-18T03:00:10;3.90;90.20
1447;DHT22;717;51.522;7.266;2022-12-18T03:02:43;3.90;90.20
1447;DHT22;717;51.522;7.266;2022-12-18T03:05:17;3.90;89.70
1447;DHT22;717;51.522;7.266;2022-12-18T03:07:49;3.80;89.90
1447;DHT22;717;51.522;7.266;2022-12-18T03:10:25;3.90;89.90
1447;DHT22;717;51.522;7.266;2022-12-18T03:13:02;3.90;90.40
1447;DHT22;717;51.522;7.266;2022-12-18T03:15:34;3.90;90.10
1447;DHT22;717;51.522;7.266;2022-12-18T03:18:06;3.80;90.00
1447;DHT22;717;51.522;7.266;2022-12-18T03:20:37;3.90;90.10
1447;DHT22;717;51.522;7.266;2022-12-18T03:23:10;3.90;90.30
1447;DHT22;717;51.522;7.266;2022-12-18T03:25:42;3.90;90.30
1447;DHT22;717;51.522;7.266;2022-12-18T03:28:16;4.00;90.20
1447;DHT22;717;51.522;7.266;2022-12-18T03:30:51;4.00;90.40
1447;DHT22;717;51.522;7.266;2022-12-18T03:33:26;4.00;90.30
1447;DHT22;717;51.522;7.266;2022-12-18T03:35:56;4.10;90.30
1447;DHT22;717;51.522;7.266;2022-12-18T03:38:25;4.10;90.20
1447;DHT22;717;51.522;7.266;2022-12-18T03:40:59;4.10;90.20
1447;DHT22;717;51.522;7.266;2022-12-18T03:43:38;4.10;90.30
1447;DHT22;717;51.522;7.266;2022-12-18T03:46:15;4.10;90.30
1447;DHT22;717;51.522;7.266;2022-12-18T03:48:48;4.10;90.30
1447;DHT22;717;51.522;7.266;2022-12-18T03:51:26;4.20;90.30
1447;DHT22;717;51.522;7.266;2022-12-18T03:53:58;4.20;90.30
1447;DHT22;717;51.522;7.266;2022-12-18T03:56:31;4.20;90.30
1447;DHT22;717;51.522;7.266;2022-12-18T03:59:04;4.20;90.30
1447;DHT22;717;51.522;7.266;2022-12-18T04:01:38;4.20;90.30
1447;DHT22;717;51.522;7.266;2022-12-18T04:04:08;4.20;90.30
1447;DHT22;717;51.522;7.266;2022-12-18T04:06:39;4.20;90.30
1447;DHT22;717;51.522;7.266;2022-12-18T04:09:09;4.20;90.30
1447;DHT22;717;51.522;7.266;2022-12-18T04:11:38;4.20;90.30
1447;DHT22;717;51.522;7.266;2022-12-18T04:14:11;4.20;90.20
1447;DHT22;717;51.522;7.266;2022-12-18T04:16:40;4.20;90.30
1447;DHT22;717;51.522;7.266;2022-12-18T04:19:09;4.20;90.30
1447;DHT22;717;51.522;7.266;2022-12-18T04:21:37;4.20;90.20
1447;DHT22;717;51.522;7.266;2022-12-18T04:24:06;4.20;90.30
1447;DHT22;717;51.522;7.266;2022-12-18T04:26:35;4.20;90.20
1447;DHT22;717;51.522;7.266;2022-12-18T04:29:04;4.20;90.20
1447;DHT22;717;51.522;7.266;2022-12-18T04:31:35;4.20;90.10
1447;DHT22;717;51.522;7.266;2022-12-18T04:34:04;4.10;90.10
1447;DHT22;717;51.522;7.266;2022-12-18T04:36:33;4.10;90.10
1447;DHT22;717;51.522;7.266;2022-12-18T04:39:01;4.10;90.00
1447;DHT22;717;51.522;7.266;2022-12-18T04:41:30;4.10;90.00
1447;DHT22;717;51.522;7.266;2022-12-18T04:43:59;4.10;90.00
1447;DHT22;717;51.522;7.266;2022-12-18T04:46:27;4.10;90.00
1447;DHT22;717;51.522;7.266;2022-12-18T04:48:58;4.10;90.00
1447;DHT22;717;51.522;7.266;2022-12-18T04:51:27;4.10;89.90
1447;DHT22;717;51.522;7.266;2022-12-18T04:53:56;4.10;89.70
1447;DHT22;717;51.522;7.266;2022-12-18T04:56:24;4.00;89.60
1447;DHT22;717;51.522;7.266;2022-12-18T04:58:53;4.00;89.60
1447;DHT22;717;51.522;7.266;2022-12-18T05:01:22;4.00;89.50
1447;DHT22;717;51.522;7.266;2022-12-18T05:03:51;4.00;89.50
1447;DHT22;717;51.522;7.266;2022-12-18T05:06:22;4.00;89.40
1447;DHT22;717;51.522;7.266;2022-12-18T05:08:51;4.00;89.50
1447;DHT22;717;51.522;7.266;2022-12-18T05:11:20;3.90;89.40
1447;DHT22;717;51.522;7.266;2022-12-18T05:13:49;3.90;89.50
1447;DHT22;717;51.522;7.266;2022-12-18T05:16:17;3.90;89.60
1447;DHT22;717;51.522;7.266;2022-12-18T05:18:46;3.90;89.70
1447;DHT22;717;51.522;7.266;2022-12-18T05:21:14;3.90;89.30
1447;DHT22;717;51.522;7.266;2022-12-18T05:23:46;3.90;89.70
1447;DHT22;717;51.522;7.266;2022-12-18T05:26:16;3.90;90.00
1447;DHT22;717;51.522;7.266;2022-12-18T05:28:45;3.90;90.00
1447;DHT22;717;51.522;7.266;2022-12-18T05:31:14;3.90;90.10
1447;DHT22;717;51.522;7.266;2022-12-18T05:33:43;3.90;90.10
1447;DHT22;717;51.522;7.266;2022-12-18T05:36:11;3.90;90.00
1447;DHT22;717;51.522;7.266;2022-12-18T05:38:40;3.90;89.90
1447;DHT22;717;51.522;7.266;2022-12-18T05:41:11;3.90;90.00
1447;DHT22;717;51.522;7.266;2022-12-18T05:43:40;3.90;90.00
1447;DHT22;717;51.522;7.266;2022-12-18T05:46:12;4.00;90.10
1447;DHT22;717;51.522;7.266;2022-12-18T05:48:41;4.00;90.10
1447;DHT22;717;51.522;7.266;2022-12-18T05:51:12;4.00;90.20
1447;DHT22;717;51.522;7.266;2022-12-18T05:53:41;4.00;90.20
1447;DHT22;717;51.522;7.266;2022-12-18T05:56:14;4.00;90.20
1447;DHT22;717;51.522;7.266;2022-12-18T05:58:43;4.00;90.20
1447;DHT22;717;51.522;7.266;2022-12-18T06:01:15;4.10;90.10
1447;DHT22;717;51.522;7.266;2022-12-18T06:03:44;4.00;90.10
1447;DHT22;717;51.522;7.266;2022-12-18T06:06:14;4.10;90.10
1447;DHT22;717;51.522;7.266;2022-12-18T06:08:43;4.10;90.10
1447;DHT22;717;51.522;7.266;2022-12-18T06:11:17;4.10;90.00
1447;DHT22;717;51.522;7.266;2022-12-18T06:13:46;4.00;90.10
1447;DHT22;717;51.522;7.266;2022-12-18T06:16:15;4.00;90.00
1447;DHT22;717;51.522;7.266;2022-12-18T06:18:43;4.00;90.00
1447;DHT22;717;51.522;7.266;2022-12-18T06:21:12;4.00;89.90
1447;DHT22;717;51.522;7.266;2022-12-18T06:23:41;4.00;90.00
1447;DHT22;717;51.522;7.266;2022-12-18T06:26:11;4.00;89.90
1447;DHT22;717;51.522;7.266;2022-12-18T06:28:42;4.00;89.80
1447;DHT22;717;51.522;7.266;2022-12-18T06:31:11;4.00;89.80
1447;DHT22;717;51.522;7.266;2022-12-18T06:33:40;4.00;89.70
1447;DHT22;717;51.522;7.266;2022-12-18T06:36:10;4.00;89.70
1447;DHT22;717;51.522;7.266;2022-12-18T06:38:41;4.00;89.80
1447;DHT22;717;51.522;7.266;2022-12-18T06:41:12;3.90;89.70
1447;DHT22;717;51.522;7.266;2022-12-18T06:43:44;3.90;89.50
1447;DHT22;717;51.522;7.266;2022-12-18T06:46:13;3.90;89.50
1447;DHT22;717;51.522;7.266;2022-12-18T06:48:42;3.90;89.50
1447;DHT22;717;51.522;7.266;2022-12-18T06:51:10;3.90;89.40
1447;DHT22;717;51.522;7.266;2022-12-18T06:53:39;3.90;89.30
1447;DHT22;717;51.522;7.266;2022-12-18T06:56:07;3.80;89.20
1447;DHT22;717;51.522;7.266;2022-12-18T06:58:36;3.80;89.20
1447;DHT22;717;51.522;7.266;2022-12-18T07:01:09;3.80;89.10
1447;DHT22;717;51.522;7.266;2022-12-18T07:03:38;3.80;89.30
1447;DHT22;717;51.522;7.266;2022-12-18T07:06:13;3.80;89.20
1447;DHT22;717;51.522;7.266;2022-12-18T07:08:42;3.80;89.20
1447;DHT22;717;51.522;7.266;2022-12-18T07:11:11;3.70;88.80
1447;DHT22;717;51.522;7.266;2022-12-18T07:13:39;3.70;88.80
1447;DHT22;717;51.522;7.266;2022-12-18T07:16:12;3.70;88.70
1447;DHT22;717;51.522;7.266;2022-12-18T07:18:41;3.70;88.90
1447;DHT22;717;51.522;7.266;2022-12-18T07:21:13;3.70;88.60
1447;DHT22;717;51.522;7.266;2022-12-18T07:23:42;3.70;88.80
1447;DHT22;717;51.522;7.266;2022-12-18T07:26:14;3.70;88.80
1447;DHT22;717;51.522;7.266;2022-12-18T07:28:43;3.60;88.80
1447;DHT22;717;51.522;7.266;2022-12-18T07:31:17;3.60;88.90
1447;DHT22;717;51.522;7.266;2022-12-18T07:33:46;3.60;89.10
1447;DHT22;717;51.522;7.266;2022-12-18T07:36:15;3.60;89.00
1447;DHT22;717;51.522;7.266;2022-12-18T07:38:46;3.60;89.00
1447;DHT22;717;51.522;7.266;2022-12-18T07:41:15;3.60;89.00
1447;DHT22;717;51.522;7.266;2022-12-18T07:43:44;3.60;89.10
1447;DHT22;717;51.522;7.266;2022-12-18T07:46:17;3.60;89.10
1447;DHT22;717;51.522;7.266;2022-12-18T07:48:46;3.70;89.30
1447;DHT22;717;51.522;7.266;2022-12-18T07:51:15;3.70;89.30
1447;DHT22;717;51.522;7.266;2022-12-18T07:53:44;3.70;89.30
1447;DHT22;717;51.522;7.266;2022-12-18T07:56:13;3.70;89.30
1447;DHT22;717;51.522;7.266;2022-12-18T07:58:41;3.70;89.30
1447;DHT22;717;51.522;7.266;2022-12-18T08:01:15;3.70;89.20
1447;DHT22;717;51.522;7.266;2022-12-18T08:03:44;3.70;89.30
1447;DHT22;717;51.522;7.266;2022-12-18T08:06:12;3.60;89.20
1447;DHT22;717;51.522;7.266;2022-12-18T08:08:41;3.70;89.30
1447;DHT22;717;51.522;7.266;2022-12-18T08:11:09;3.70;89.30
1447;DHT22;717;51.522;7.266;2022-12-18T08:13:38;3.70;89.20
1447;DHT22;717;51.522;7.266;2022-12-18T08:16:07;3.70;89.30
1447;DHT22;717;51.522;7.266;2022-12-18T08:18:39;3.70;89.30
1447;DHT22;717;51.522;7.266;2022-12-18T08:21:09;3.70;89.50
1447;DHT22;717;51.522;7.266;2022-12-18T08:23:38;3.70;89.40
1447;DHT22;717;51.522;7.266;2022-12-18T08:26:07;3.70;89.50
1447;DHT22;717;51.522;7.266;2022-12-18T08:28:36;3.70;89.40
1447;DHT22;717;51.522;7.266;2022-12-18T08:31:05;3.70;89.50
1447;DHT22;717;51.522;7.266;2022-12-18T08:33:34;3.70;89.50
1447;DHT22;717;51.522;7.266;2022-12-18T08:36:08;3.70;89.50
1447;DHT22;717;51.522;7.266;2022-12-18T08:38:38;3.70;89.70
1447;DHT22;717;51.522;7.266;2022-12-18T08:41:08;3.80;89.60
1447;DHT22;717;51.522;7.266;2022-12-18T08:43:37;3.80;89.70
1447;DHT22;717;51.522;7.266;2022-12-18T08:46:19;3.80;89.70
1447;DHT22;717;51.522;7.266;2022-12-18T08:48:49;3.80;89.40
1447;DHT22;717;51.522;7.266;2022-12-18T08:51:21;3.80;89.90
1447;DHT22;717;51.522;7.266;2022-12-18T08:53:50;3.80;90.00
1447;DHT22;717;51.522;7.266;2022-12-18T08:56:18;3.90;90.00
1447;DHT22;717;51.522;7.266;2022-12-18T08:58:47;3.90;90.00
1447;DHT22;717;51.522;7.266;2022-12-18T09:01:19;3.90;89.90
1447;DHT22;717;51.522;7.266;2022-12-18T09:03:48;4.00;90.10
1447;DHT22;717;51.522;7.266;2022-12-18T09:06:21;4.00;90.20
1447;DHT22;717;51.522;7.266;2022-12-18T09:08:52;4.00;90.20
1447;DHT22;717;51.522;7.266;2022-12-18T09:11:22;4.00;90.20
1447;DHT22;717;51.522;7.266;2022-12-18T09:13:51;4.10;90.30
1447;DHT22;717;51.522;7.266;2022-12-18T09:16:20;4.10;90.20
1447;DHT22;717;51.522;7.266;2022-12-18T09:18:49;4.20;90.30
1447;DHT22;717;51.522;7.266;2022-12-18T09:21:22;4.20;90.30
1447;DHT22;717;51.522;7.266;2022-12-18T09:23:51;4.30;90.30
1447;DHT22;717;51.522;7.266;2022-12-18T09:26:20;4.30;90.10
1447;DHT22;717;51.522;7.266;2022-12-18T09:28:49;4.40;90.20
1447;DHT22;717;51.522;7.266;2022-12-18T09:31:20;4.40;90.10
1447;DHT22;717;51.522;7.266;2022-12-18T09:33:49;4.50;90.20
1447;DHT22;717;51.522;7.266;2022-12-18T09:36:22;4.50;90.10
1447;DHT22;717;51.522;7.266;2022-12-18T09:38:50;4.60;90.20
1447;DHT22;717;51.522;7.266;2022-12-18T09:41:39;4.60;89.80
1447;DHT22;717;51.522;7.266;2022-12-18T09:44:20;4.60;90.10
1447;DHT22;717;51.522;7.266;2022-12-18T09:46:57;4.60;90.20
1447;DHT22;717;51.522;7.266;2022-12-18T09:49:30;4.70;90.20
1447;DHT22;717;51.522;7.266;2022-12-18T09:52:08;4.80;90.20
1447;DHT22;717;51.522;7.266;2022-12-18T09:54:43;4.80;90.20
1447;DHT22;717;51.522;7.266;2022-12-18T09:57:14;4.80;90.60
1447;DHT22;717;51.522;7.266;2022-12-18T09:59:48;4.90;90.30
1447;DHT22;717;51.522;7.266;2022-12-18T10:02:20;5.00;90.30
1447;DHT22;717;51.522;7.266;2022-12-18T10:05:00;5.00;90.20
1447;DHT22;717;51.522;7.266;2022-12-18T10:07:43;5.00;90.40
1447;DHT22;717;51.522;7.266;2022-12-18T10:10:23;5.10;90.40
1447;DHT22;717;51.522;7.266;2022-12-18T10:13:01;5.10;90.40
1447;DHT22;717;51.522;7.266;2022-12-18T10:15:36;5.20;90.20
1447;DHT22;717;51.522;7.266;2022-12-18T10:18:18;5.20;90.30
1447;DHT22;717;51.522;7.266;2022-12-18T10:20:52;5.30;90.40
1447;DHT22;717;51.522;7.266;2022-12-18T10:23:28;5.30;90.30
1447;DHT22;717;51.522;7.266;2022-12-18T10:26:03;5.40;90.10
1447;DHT22;717;51.522;7.266;2022-12-18T10:28:35;5.40;90.00
1447;DHT22;717;51.522;7.266;2022-12-18T10:31:05;5.50;90.00
1447;DHT22;717;51.522;7.266;2022-12-18T10:33:34;5.50;90.00
1447;DHT22;717;51.522;7.266;2022-12-18T10:36:03;5.60;89.80
1447;DHT22;717;51.522;7.266;2022-12-18T10:38:35;5.60;89.80
1447;DHT22;717;51.522;7.266;2022-12-18T10:41:05;5.70;89.50
1447;DHT22;717;51.522;7.266;2022-12-18T10:43:38;5.70;89.40
1447;DHT22;717;51.522;7.266;2022-12-18T10:46:14;5.80;90.00
1447;DHT22;717;51.522;7.266;2022-12-18T10:48:53;5.80;89.90
1447;DHT22;717;51.522;7.266;2022-12-18T10:51:25;5.90;90.00
1447;DHT22;717;51.522;7.266;2022-12-18T10:54:00;5.90;90.00
1447;DHT22;717;51.522;7.266;2022-12-18T10:56:31;5.90;90.00
1447;DHT22;717;51.522;7.266;2022-12-18T10:59:04;6.00;90.10
1447;DHT22;717;51.522;7.266;2022-12-18T11:01:50;6.10;90.20
1447;DHT22;717;51.522;7.266;2022-12-18T11:04:22;6.10;90.20
1447;DHT22;717;51.522;7.266;2022-12-18T11:06:56;6.10;90.20
1447;DHT22;717;51.522;7.266;2022-12-18T11:09:29;6.10;90.20
1447;DHT22;717;51.522;7.266;2022-12-18T11:12:00;6.20;90.30
1447;DHT22;717;51.522;7.266;2022-12-18T11:14:32;6.30;90.30
1447;DHT22;717;51.522;7.266;2022-12-18T11:17:01;6.30;90.30
1447;DHT22;717;51.522;7.266;2022-12-18T11:19:33;6.30;90.30
1447;DHT22;717;51.522;7.266;2022-12-18T11:22:17;6.40;90.30
1447;DHT22;717;51.522;7.266;2022-12-18T11:24:55;6.40;90.30
1447;DHT22;717;51.522;7.266;2022-12-18T11:27:24;6.50;90.40
1447;DHT22;717;51.522;7.266;2022-12-18T11:30:07;6.50;90.30
1447;DHT22;717;51.522;7.266;2022-12-18T11:32:38;6.60;90.30
1447;DHT22;717;51.522;7.266;2022-12-18T11:35:16;6.60;90.30
1447;DHT22;717;51.522;7.266;2022-12-18T11:37:49;6.60;90.30
1447;DHT22;717;51.522;7.266;2022-12-18T11:40:27;6.70;90.30
1447;DHT22;717;51.522;7.266;2022-12-18T11:43:04;6.70;90.20
1447;DHT22;717;51.522;7.266;2022-12-18T11:45:37;6.70;90.20
1447;DHT22;717;51.522;7.266;2022-12-18T11:48:14;6.80;90.30
1447;DHT22;717;51.522;7.266;2022-12-18T11:50:49;6.80;90.40
1447;DHT22;717;51.522;7.266;2022-12-18T11:53:19;6.80;90.30
1447;DHT22;717;51.522;7.266;2022-12-18T11:56:21;6.90;90.40
1447;DHT22;717;51.522;7.266;2022-12-18T11:59:04;6.90;90.50
1447;DHT22;717;51.522;7.266;2022-12-18T12:01:44;6.90;90.40
1447;DHT22;717;51.522;7.266;2022-12-18T12:04:45;6.90;90.80
1447;DHT22;717;51.522;7.266;2022-12-18T12:07:29;6.90;90.40
1447;DHT22;717;51.522;7.266;2022-12-18T12:10:12;6.90;90.40
1447;DHT22;717;51.522;7.266;2022-12-18T12:13:02;7.00;90.50
1447;DHT22;717;51.522;7.266;2022-12-18T12:15:41;7.00;90.50
1447;DHT22;717;51.522;7.266;2022-12-18T12:18:22;7.00;90.50
1447;DHT22;717;51.522;7.266;2022-12-18T12:21:02;7.00;90.50
1447;DHT22;717;51.522;7.266;2022-12-18T12:23:40;7.10;90.50
1447;DHT22;717;51.522;7.266;2022-12-18T12:26:11;7.10;90.50
1447;DHT22;717;51.522;7.266;2022-12-18T12:29:01;7.10;90.40
1447;DHT22;717;51.522;7.266;2022-12-18T12:31:43;7.10;90.50
1447;DHT22;717;51.522;7.266;2022-12-18T12:34:18;7.20;90.50
1447;DHT22;717;51.522;7.266;2022-12-18T12:36:59;7.20;90.40
1447;DHT22;717;51.522;7.266;2022-12-18T12:39:34;7.20;90.40
1447;DHT22;717;51.522;7.266;2022-12-18T12:42:05;7.20;90.40
1447;DHT22;717;51.522;7.266;2022-12-18T12:44:53;7.20;90.50
1447;DHT22;717;51.522;7.266;2022-12-18T12:47:27;7.20;90.50
1447;DHT22;717;51.522;7.266;2022-12-18T12:49:59;7.30;90.50
1447;DHT22;717;51.522;7.266;2022-12-18T12:52:31;7.30;90.50
1447;DHT22;717;51.522;7.266;2022-12-18T12:55:02;7.30;90.50
1447;DHT22;717;51.522;7.266;2022-12-18T12:57:36;7.30;90.50
1447;DHT22;717;51.522;7.266;2022-12-18T13:00:10;7.30;90.50
1447;DHT22;717;51.522;7.266;2022-12-18T13:02:45;7.30;90.40
1447;DHT22;717;51.522;7.266;2022-12-18T13:05:21;7.40;90.90
1447;DHT22;717;51.522;7.266;2022-12-18T13:07:56;7.30;90.50
1447;DHT22;717;51.522;7.266;2022-12-18T13:10:32;7.40;90.50
1447;DHT22;717;51.522;7.266;2022-12-18T13:13:03;7.40;90.50
1447;DHT22;717;51.522;7.266;2022-12-18T13:15:42;7.40;90.50
1447;DHT22;717;51.522;7.266;2022-12-18T13:18:17;7.40;90.50
1447;DHT22;717;51.522;7.266;2022-12-18T13:20:49;7.40;90.60
1447;DHT22;717;51.522;7.266;2022-12-18T13:23:28;7.40;90.50
1447;DHT22;717;51.522;7.266;2022-12-18T13:25:58;7.40;90.50
1447;DHT22;717;51.522;7.266;2022-12-18T13:28:51;7.40;90.50
1447;DHT22;717;51.522;7.266;2022-12-18T13:34:23;7.40;90.60
1447;DHT22;717;51.522;7.266;2022-12-18T13:36:54;7.40;90.50
1447;DHT22;717;51.522;7.266;2022-12-18T13:39:32;7.40;90.50
1447;DHT22;717;51.522;7.266;2022-12-18T13:42:35;7.40;90.50
1447;DHT22;717;51.522;7.266;2022-12-18T13:45:40;7.40;90.60
1447;DHT22;717;51.522;7.266;2022-12-18T13:48:18;7.40;90.60
1447;DHT22;717;51.522;7.266;2022-12-18T13:50:57;7.50;90.60
1447;DHT22;717;51.522;7.266;2022-12-18T13:53:30;7.40;90.30
1447;DHT22;717;51.522;7.266;2022-12-18T13:56:00;7.40;90.20
1447;DHT22;717;51.522;7.266;2022-12-18T13:58:29;7.40;90.40
1447;DHT22;717;51.522;7.266;2022-12-18T14:00:58;7.40;90.40
1447;DHT22;717;51.522;7.266;2022-12-18T14:03:30;7.40;90.40
1447;DHT22;717;51.522;7.266;2022-12-18T14:06:04;7.50;90.30
1447;DHT22;717;51.522;7.266;2022-12-18T14:08:38;7.50;89.90
1447;DHT22;717;51.522;7.266;2022-12-18T14:11:07;7.50;89.60
1447;DHT22;717;51.522;7.266;2022-12-18T14:13:46;7.50;89.10
1447;DHT22;717;51.522;7.266;2022-12-18T14:16:16;7.50;89.10
1447;DHT22;717;51.522;7.266;2022-12-18T14:18:48;7.50;88.90
1447;DHT22;717;51.522;7.266;2022-12-18T14:21:21;7.50;88.70
1447;DHT22;717;51.522;7.266;2022-12-18T14:24:04;7.50;88.70
1447;DHT22;717;51.522;7.266;2022-12-18T14:26:33;7.50;88.90
1447;DHT22;717;51.522;7.266;2022-12-18T14:29:20;7.50;87.70
1447;DHT22;717;51.522;7.266;2022-12-18T14:32:05;7.40;87.10
1447;DHT22;717;51.522;7.266;2022-12-18T14:34:34;7.40;87.40
1447;DHT22;717;51.522;7.266;2022-12-18T14:37:07;7.40;87.50
1447;DHT22;717;51.522;7.266;2022-12-18T14:39:37;7.40;87.20
1447;DHT22;717;51.522;7.266;2022-12-18T14:42:10;7.40;87.10
1447;DHT22;717;51.522;7.266;2022-12-18T14:44:39;7.40;86.90
1447;DHT22;717;51.522;7.266;2022-12-18T14:47:13;7.30;86.80
1447;DHT22;717;51.522;7.266;2022-12-18T14:49:42;7.30;86.40
1447;DHT22;717;51.522;7.266;2022-12-18T14:52:27;7.30;86.40
1447;DHT22;717;51.522;7.266;2022-12-18T14:54:57;7.20;86.20
1447;DHT22;717;51.522;7.266;2022-12-18T14:57:29;7.20;86.10
1447;DHT22;717;51.522;7.266;2022-12-18T15:00:04;7.20;86.10
1447;DHT22;717;51.522;7.266;2022-12-18T15:02:35;7.20;85.80
1447;DHT22;717;51.522;7.266;2022-12-18T15:05:16;7.30;85.70
1447;DHT22;717;51.522;7.266;2022-12-18T15:07:50;7.30;85.60
1447;DHT22;717;51.522;7.266;2022-12-18T15:10:22;7.30;85.40
1447;DHT22;717;51.522;7.266;2022-12-18T15:13:08;7.30;85.30
1447;DHT22;717;51.522;7.266;2022-12-18T15:15:47;7.30;84.70
1447;DHT22;717;51.522;7.266;2022-12-18T15:18:18;7.30;85.00
1447;DHT22;717;51.522;7.266;2022-12-18T15:20:49;7.30;86.00
1447;DHT22;717;51.522;7.266;2022-12-18T15:23:23;7.30;85.00
1447;DHT22;717;51.522;7.266;2022-12-18T15:25:55;7.30;85.10
1447;DHT22;717;51.522;7.266;2022-12-18T15:28:26;7.30;84.70
1447;DHT22;717;51.522;7.266;2022-12-18T15:31:00;7.30;84.00
1447;DHT22;717;51.522;7.266;2022-12-18T15:33:32;7.30;84.20
1447;DHT22;717;51.522;7.266;2022-12-18T15:36:04;7.30;84.00
1447;DHT22;717;51.522;7.266;2022-12-18T15:38:35;7.30;84.00
1447;DHT22;717;51.522;7.266;2022-12-18T15:41:04;7.30;83.80
1447;DHT22;717;51.522;7.266;2022-12-18T15:43:33;7.30;84.20
1447;DHT22;717;51.522;7.266;2022-12-18T15:46:04;7.30;84.30
1447;DHT22;717;51.522;7.266;2022-12-18T15:48:40;7.30;84.40
1447;DHT22;717;51.522;7.266;2022-12-18T15:51:13;7.30;83.80
1447;DHT22;717;51.522;7.266;2022-12-18T15:53:46;7.20;83.80
1447;DHT22;717;51.522;7.266;2022-12-18T15:56:16;7.20;83.80
1447;DHT22;717;51.522;7.266;2022-12-18T15:58:57;7.20;84.00
1447;DHT22;717;51.522;7.266;2022-12-18T16:01:27;7.20;83.60
1447;DHT22;717;51.522;7.266;2022-12-18T16:03:57;7.20;83.80
1447;DHT22;717;51.522;7.266;2022-12-18T16:06:25;7.10;83.70
1447;DHT22;717;51.522;7.266;2022-12-18T16:08:56;7.10;83.70
1447;DHT22;717;51.522;7.266;2022-12-18T16:11:26;7.10;83.70
1447;DHT22;717;51.522;7.266;2022-12-18T16:14:12;7.10;83.70
1447;DHT22;717;51.522;7.266;2022-12-18T16:16:44;7.10;84.00
1447;DHT22;717;51.522;7.266;2022-12-18T16:19:13;7.10;83.90
1447;DHT22;717;51.522;7.266;2022-12-18T16:21:42;7.10;83.80
1447;DHT22;717;51.522;7.266;2022-12-18T16:24:16;7.10;83.60
1447;DHT22;717;51.522;7.266;2022-12-18T16:26:45;7.10;83.80
1447;DHT22;717;51.522;7.266;2022-12-18T16:29:14;7.10;84.00
1447;DHT22;717;51.522;7.266;2022-12-18T16:31:42;7.10;84.30
1447;DHT22;717;51.522;7.266;2022-12-18T16:34:13;7.10;84.10
1447;DHT22;717;51.522;7.266;2022-12-18T16:36:41;7.10;84.00
1447;DHT22;717;51.522;7.266;2022-12-18T16:39:10;7.00;84.00
1447;DHT22;717;51.522;7.266;2022-12-18T16:41:42;7.00;83.80
1447;DHT22;717;51.522;7.266;2022-12-18T16:44:11;7.00;83.70
1447;DHT22;717;51.522;7.266;2022-12-18T16:46:39;6.90;83.90
1447;DHT22;717;51.522;7.266;2022-12-18T16:49:11;6.80;84.30
1447;DHT22;717;51.522;7.266;2022-12-18T16:51:40;6.80;85.00
1447;DHT22;717;51.522;7.266;2022-12-18T16:54:09;6.70;84.50
1447;DHT22;717;51.522;7.266;2022-12-18T16:56:41;6.70;84.80
1447;DHT22;717;51.522;7.266;2022-12-18T16:59:11;6.60;85.10
1447;DHT22;717;51.522;7.266;2022-12-18T17:01:40;6.60;85.30
1447;DHT22;717;51.522;7.266;2022-12-18T17:04:09;6.60;85.30
1447;DHT22;717;51.522;7.266;2022-12-18T17:06:40;6.50;85.30
1447;DHT22;717;51.522;7.266;2022-12-18T17:09:11;6.50;85.60
1447;DHT22;717;51.522;7.266;2022-12-18T17:11:43;6.40;85.80